Metar z połowy godziny Komunikat METAR ze strony awiacja.imgw.pl Metar G30 EPSY METAR EPSY 190130Z VRB02KT CAVOK 12/11 Q1018=